Time;durP1;ratioP1;P1;durP2;ratioP2;P2;SDS_P1;SDS_P2;PMS_P1;PMS_P2;Temp;Humidity;BMP_temperature;BMP_pressure;BME280_temperature;BME280_humidity;BME280_pressure;Samples;Min_cycle;Max_cycle;Signal;HPM_P1;HPM_P2
2023/06/29 00:02:10;;;;;;;;;;;;;;;18.64;100.00;101623.16;4995366;28;19968;-70
2023/06/29 00:04:35;;;;;;;;;;;;;;;18.63;100.00;101629.63;4987705;28;19928;-70
2023/06/29 00:07:01;;;;;;;;;;;;;;;18.66;100.00;101626.59;4992343;28;20527;-70
2023/06/29 00:09:27;;;;;;;;;;;;;;;18.67;100.00;101622.88;4996675;28;20379;-70
2023/06/29 00:11:52;;;;;;;;;;;;;;;18.67;100.00;101620.97;4995184;28;19921;-70
2023/06/29 00:14:17;;;;;;;;;;;;;;;18.68;100.00;101622.69;4994665;28;19929;-70
2023/06/29 00:16:42;;;;;;;;;;;;;;;18.70;100.00;101622.53;4988122;28;19921;-70
2023/06/29 00:19:08;;;;;;;;;;;;;;;18.71;100.00;101622.38;4995744;28;20280;-70
2023/06/29 00:21:33;;;;;;;;;;;;;;;18.73;100.00;101620.38;5009024;28;20008;-70
2023/06/29 00:23:58;;;;;;;;;;;;;;;18.72;100.00;101621.38;4994182;28;19959;-70
2023/06/29 00:26:26;;;;;;;;;;;;;;;18.72;100.00;101617.78;4998601;28;20275;-69
2023/06/29 00:28:51;;;;;;;;;;;;;;;18.73;100.00;101622.22;4996525;28;19936;-69
2023/06/29 00:31:18;;;;;;;;;;;;;;;18.74;100.00;101623.94;5013421;28;19922;-70
2023/06/29 00:33:43;;;;;;;;;;;;;;;18.71;100.00;101616.94;4994236;28;20132;-70
2023/06/29 00:36:09;;;;;;;;;;;;;;;18.73;100.00;101619.50;5009150;28;19959;-70
2023/06/29 00:38:34;;;;;;;;;;;;;;;18.74;100.00;101615.78;4997702;28;20019;-70
2023/06/29 00:40:59;;;;;;;;;;;;;;;18.73;100.00;101603.19;4999371;28;19917;-70
2023/06/29 00:43:24;;;;;;;;;;;;;;;18.72;100.00;101604.19;4999826;28;19925;-69
2023/06/29 00:45:50;;;;;;;;;;;;;;;18.72;100.00;101609.63;5011653;28;20276;-70
2023/06/29 00:48:15;;;;;;;;;;;;;;;18.71;100.00;101606.06;4995186;28;20399;-69
2023/06/29 00:50:40;;;;;;;;;;;;;;;18.70;100.00;101598.03;5012460;28;20371;-69
2023/06/29 00:53:06;;;;;;;;;;;;;;;18.71;100.00;101610.63;4994621;28;19927;-70
2023/06/29 00:55:31;;;;;;;;;;;;;;;18.69;100.00;101601.78;5011112;28;20708;-70
2023/06/29 00:57:57;;;;;;;;;;;;;;;18.55;100.00;101585.00;4997795;28;19929;-69
2023/06/29 01:00:22;;;;;;;;;;;;;;;18.62;100.00;101598.00;4996806;28;20063;-70
2023/06/29 01:02:48;;;;;;;;;;;;;;;18.56;100.00;101585.84;4995360;28;20032;-69
2023/06/29 01:05:14;;;;;;;;;;;;;;;18.54;100.00;101591.44;5008990;28;19964;-69
2023/06/29 01:07:45;;;;;;;;;;;;;;;18.54;100.00;101591.44;4995410;28;20242;-70
2023/06/29 01:10:11;;;;;;;;;;;;;;;18.55;100.00;101587.72;4992649;28;20368;-70
2023/06/29 01:12:36;;;;;;;;;;;;;;;18.55;100.00;101581.41;4994585;28;19927;-68
2023/06/29 01:15:01;;;;;;;;;;;;;;;18.49;100.00;101588.31;4992572;28;19921;-70
2023/06/29 01:17:27;;;;;;;;;;;;;;;18.46;100.00;101577.75;5009580;28;19972;-70
2023/06/29 01:19:52;;;;;;;;;;;;;;;18.40;100.00;101579.22;5006290;23;20056;-68
2023/06/29 01:22:20;;;;;;;;;;;;;;;18.39;100.00;101572.09;4952022;28;19921;-70
2023/06/29 01:24:45;;;;;;;;;;;;;;;18.36;100.00;101576.97;4952504;28;19922;-70
2023/06/29 01:27:12;;;;;;;;;;;;;;;18.35;100.00;101572.56;4970367;28;20360;-70
2023/06/29 01:29:37;;;;;;;;;;;;;;;18.36;100.00;101580.53;4952001;28;19945;-70
2023/06/29 01:32:03;;;;;;;;;;;;;;;18.36;100.00;101585.97;4952069;28;19925;-70
2023/06/29 01:34:28;;;;;;;;;;;;;;;18.36;100.00;101588.69;4954071;28;21575;-70
2023/06/29 01:36:54;;;;;;;;;;;;;;;18.37;100.00;101589.56;4957630;28;20356;-70
2023/06/29 01:39:22;;;;;;;;;;;;;;;18.39;100.00;101585.69;4953882;28;19922;-69
2023/06/29 01:41:48;;;;;;;;;;;;;;;18.43;100.00;101580.78;4958435;28;19932;-70
2023/06/29 01:44:16;;;;;;;;;;;;;;;18.46;100.00;101585.91;4959036;28;19922;-70
2023/06/29 01:46:43;;;;;;;;;;;;;;;18.49;100.00;101582.06;4987050;28;19929;-69
2023/06/29 01:49:08;;;;;;;;;;;;;;;18.49;100.00;101579.34;4984321;28;19961;-70
2023/06/29 01:51:33;;;;;;;;;;;;;;;18.46;100.00;101577.75;4954135;28;20399;-70
2023/06/29 01:53:58;;;;;;;;;;;;;;;18.51;100.00;101577.31;4958085;28;19926;-70
2023/06/29 01:56:24;;;;;;;;;;;;;;;18.54;100.00;101574.28;4957883;28;20508;-70
2023/06/29 01:58:49;;;;;;;;;;;;;;;18.58;100.00;101567.50;4957960;28;20369;-70
2023/06/29 02:01:14;;;;;;;;;;;;;;;18.59;100.00;101571.94;4957235;28;19926;-69
2023/06/29 02:03:39;;;;;;;;;;;;;;;18.61;100.00;101564.47;4953453;28;20016;-69
2023/06/29 02:06:05;;;;;;;;;;;;;;;18.65;100.00;101562.31;4958405;28;20009;-70
2023/06/29 02:08:30;;;;;;;;;;;;;;;18.66;100.00;101556.72;4956396;28;19928;-70
2023/06/29 02:10:55;;;;;;;;;;;;;;;18.70;100.00;101558.13;4967072;28;19961;-70
2023/06/29 02:13:20;;;;;;;;;;;;;;;18.71;100.00;101557.13;4955465;28;20048;-70
2023/06/29 02:15:46;;;;;;;;;;;;;;;18.72;100.00;101557.94;4954836;28;20431;-70
2023/06/29 02:18:11;;;;;;;;;;;;;;;18.71;100.00;101551.69;4986135;28;20002;-70
2023/06/29 02:20:36;;;;;;;;;;;;;;;18.71;100.00;101554.41;4959040;28;19932;-70
2023/06/29 02:23:01;;;;;;;;;;;;;;;18.70;100.00;101562.69;4957156;28;19918;-69
2023/06/29 02:25:26;;;;;;;;;;;;;;;18.64;100.00;101556.00;4972354;28;19926;-70
2023/06/29 02:27:52;;;;;;;;;;;;;;;18.63;100.00;101553.47;4956241;28;19932;-70
2023/06/29 02:30:17;;;;;;;;;;;;;;;18.63;100.00;101553.47;4968527;28;19930;-69
2023/06/29 02:32:42;;;;;;;;;;;;;;;18.63;100.00;101548.88;4956042;28;19918;-69
2023/06/29 02:35:08;;;;;;;;;;;;;;;18.65;100.00;101541.41;4958700;28;19922;-70
2023/06/29 02:37:33;;;;;;;;;;;;;;;18.66;100.00;101545.84;4957743;28;20238;-69
2023/06/29 02:39:58;;;;;;;;;;;;;;;18.65;100.00;101535.13;4986674;28;20364;-70
2023/06/29 02:42:23;;;;;;;;;;;;;;;18.63;100.00;101535.28;4951995;28;20262;-69
2023/06/29 02:44:48;;;;;;;;;;;;;;;18.63;100.00;101529.00;4956492;28;20611;-69
2023/06/29 02:47:14;;;;;;;;;;;;;;;18.56;100.00;101524.16;4957003;28;20404;-70
2023/06/29 02:49:39;;;;;;;;;;;;;;;18.39;100.00;101506.84;4955043;28;20360;-69
2023/06/29 02:52:04;;;;;;;;;;;;;;;18.49;100.00;101530.38;4955089;28;20400;-69
2023/06/29 02:54:29;;;;;;;;;;;;;;;18.48;100.00;101531.41;4956144;28;20008;-70
2023/06/29 02:56:55;;;;;;;;;;;;;;;18.43;100.00;101527.28;4958154;28;20321;-69
2023/06/29 02:59:20;;;;;;;;;;;;;;;18.39;100.00;101522.31;4957223;28;20403;-69
2023/06/29 03:01:46;;;;;;;;;;;;;;;18.33;100.00;101522.91;4956811;28;20018;-70
2023/06/29 03:04:11;;;;;;;;;;;;;;;18.28;100.00;101529.66;4955716;28;19922;-69
2023/06/29 03:06:36;;;;;;;;;;;;;;;18.23;100.00;101525.72;4956420;28;19968;-68
2023/06/29 03:09:01;;;;;;;;;;;;;;;18.18;100.00;101523.44;4950633;28;20021;-70
2023/06/29 03:11:26;;;;;;;;;;;;;;;18.14;100.00;101520.19;4984125;28;19926;-69
2023/06/29 03:13:54;;;;;;;;;;;;;;;18.16;100.00;101522.72;4944881;28;20262;-69
2023/06/29 03:16:19;;;;;;;;;;;;;;;18.13;100.00;101514.91;4955020;28;19930;-69
2023/06/29 03:18:44;;;;;;;;;;;;;;;18.16;100.00;101521.88;4986660;28;20166;-69
2023/06/29 03:21:09;;;;;;;;;;;;;;;18.14;100.00;101527.50;4986638;28;19933;-70
2023/06/29 03:23:35;;;;;;;;;;;;;;;18.13;100.00;101526.63;4951669;28;20000;-70
2023/06/29 03:26:00;;;;;;;;;;;;;;;18.15;100.00;101523.72;4955801;28;20610;-69
2023/06/29 03:28:25;;;;;;;;;;;;;;;18.12;100.00;101526.78;4972793;28;20432;-69
2023/06/29 03:30:50;;;;;;;;;;;;;;;18.14;100.00;101520.19;4970381;28;20227;-69
2023/06/29 03:33:16;;;;;;;;;;;;;;;18.17;100.00;101523.59;4953525;28;19922;-70
2023/06/29 03:35:41;;;;;;;;;;;;;;;18.23;100.00;101520.28;4950492;28;19976;-68
2023/06/29 03:38:09;;;;;;;;;;;;;;;18.23;100.00;101509.41;4947096;28;20028;-70
2023/06/29 03:40:34;;;;;;;;;;;;;;;18.24;100.00;101513.84;4936640;28;20321;-70
2023/06/29 03:43:00;;;;;;;;;;;;;;;18.24;100.00;101498.38;4935605;28;19927;-69
2023/06/29 03:45:25;;;;;;;;;;;;;;;18.24;100.00;101495.66;4934633;28;20043;-70
2023/06/29 03:47:50;;;;;;;;;;;;;;;18.22;100.00;101503.09;4937426;28;19969;-70
2023/06/29 03:50:16;;;;;;;;;;;;;;;18.23;100.00;101501.25;4935070;28;20037;-69
2023/06/29 03:52:42;;;;;;;;;;;;;;;18.20;100.00;101496.97;4935162;28;20442;-70
2023/06/29 03:55:07;;;;;;;;;;;;;;;18.17;100.00;101494.53;4959443;28;20021;-69
2023/06/29 03:57:33;;;;;;;;;;;;;;;18.20;100.00;101496.97;4935939;28;20001;-69
2023/06/29 03:59:58;;;;;;;;;;;;;;;18.21;100.00;101493.22;4943897;28;19969;-70
2023/06/29 04:02:23;;;;;;;;;;;;;;;18.20;100.00;101486.09;4941338;28;20379;-69
2023/06/29 04:04:48;;;;;;;;;;;;;;;18.23;100.00;101487.66;4940209;28;19922;-69
2023/06/29 04:07:14;;;;;;;;;;;;;;;18.20;100.00;101486.09;4940419;28;19922;-70
2023/06/29 04:09:39;;;;;;;;;;;;;;;18.18;100.00;101487.25;4939739;28;19937;-70
2023/06/29 04:12:04;;;;;;;;;;;;;;;18.27;100.00;101481.75;4934569;28;19964;-69
2023/06/29 04:14:30;;;;;;;;;;;;;;;18.32;100.00;101494.03;4941658;28;20012;-70
2023/06/29 04:16:55;;;;;;;;;;;;;;;18.31;100.00;101485.00;4940696;28;20001;-69
2023/06/29 04:19:20;;;;;;;;;;;;;;;18.25;100.00;101491.91;4940855;28;19927;-69
2023/06/29 04:21:45;;;;;;;;;;;;;;;18.31;100.00;101493.16;4940998;28;20328;-70
2023/06/29 04:24:10;;;;;;;;;;;;;;;18.33;100.00;101477.56;4938271;28;20302;-70
2023/06/29 04:26:38;;;;;;;;;;;;;;;18.32;100.00;101485.88;4942608;28;20420;-69
2023/06/29 04:29:06;;;;;;;;;;;;;;;18.31;100.00;101478.72;4939727;28;19926;-70
2023/06/29 04:31:31;;;;;;;;;;;;;;;18.30;100.00;101486.00;4937835;28;20329;-70
2023/06/29 04:33:58;;;;;;;;;;;;;;;18.36;100.00;101479.13;4943417;28;19929;-70
2023/06/29 04:36:23;;;;;;;;;;;;;;;18.39;100.00;101474.22;4941213;28;20289;-70
2023/06/29 04:38:48;;;;;;;;;;;;;;;18.42;100.00;101473.91;4941646;28;19923;-70
2023/06/29 04:41:13;;;;;;;;;;;;;;;18.47;100.00;101472.59;4938582;28;20396;-70
2023/06/29 04:43:39;;;;;;;;;;;;;;;18.49;100.00;101467.84;4938879;28;20217;-70
2023/06/29 04:46:04;;;;;;;;;;;;;;;18.51;100.00;101469.41;4940984;28;19923;-69
2023/06/29 04:48:32;;;;;;;;;;;;;;;18.49;100.00;101470.56;4933921;28;19926;-70
2023/06/29 04:51:04;;;;;;;;;;;;;;;18.49;100.00;101468.69;4938023;28;19934;-70
2023/06/29 04:53:30;;;;;;;;;;;;;;;18.54;100.00;101460.09;4936690;28;19962;-70
2023/06/29 04:55:55;;;;;;;;;;;;;;;18.57;100.00;101466.06;4931141;28;19950;-70
2023/06/29 04:58:20;;;;;;;;;;;;;;;18.61;100.00;101460.31;4938821;28;19999;-70
2023/06/29 05:00:45;;;;;;;;;;;;;;;18.64;100.00;101460.84;4938255;28;20347;-70
2023/06/29 05:03:10;;;;;;;;;;;;;;;18.64;100.00;101465.44;4945275;28;20277;-70
2023/06/29 05:05:36;;;;;;;;;;;;;;;18.66;100.00;101455.25;4933317;28;20675;-70
2023/06/29 05:08:01;;;;;;;;;;;;;;;18.63;100.00;101453.69;4940895;28;20359;-69
2023/06/29 05:10:26;;;;;;;;;;;;;;;18.70;100.00;101459.34;4939399;28;19977;-70
2023/06/29 05:12:52;;;;;;;;;;;;;;;18.71;100.00;101463.75;4936664;28;20293;-70
2023/06/29 10:25:50;;;;;;;;;;;;;;;24.99;78.30;101352.63;5136675;27;20430;-72
2023/06/29 10:28:15;;;;;;;;;;;;;;;25.01;81.35;101349.69;5126791;27;19927;-72
2023/06/29 10:30:47;;;;;;;;;;;;;;;24.79;77.59;101349.75;5118251;27;19927;-74
2023/06/29 10:33:14;;;;;;;;;;;;;;;24.86;81.58;101355.31;5106562;27;19924;-72
2023/06/29 10:35:40;;;;;;;;;;;;;;;24.87;76.95;101354.28;5134217;27;19916;-71
2023/06/29 10:38:12;;;;;;;;;;;;;;;24.94;77.74;101349.63;5103331;27;19931;-71
2023/06/29 10:40:50;;;;;;;;;;;;;;;24.79;78.70;101357.16;5128514;27;19923;-72
2023/06/29 10:43:15;;;;;;;;;;;;;;;24.76;75.44;101350.19;5131154;27;20341;-72
2023/06/29 10:45:40;;;;;;;;;;;;;;;24.92;77.00;101351.75;5118160;27;19927;-73
2023/06/29 10:48:09;;;;;;;;;;;;;;;24.76;73.56;101352.06;5121560;27;19958;-71
2023/06/29 10:50:35;;;;;;;;;;;;;;;24.72;74.92;101351.66;5129829;27;19923;-73
2023/06/29 10:53:00;;;;;;;;;;;;;;;24.75;71.83;101348.50;5127716;27;20327;-73
2023/06/29 10:55:42;;;;;;;;;;;;;;;24.80;72.86;101345.97;5103482;27;19966;-72
2023/06/29 10:58:14;;;;;;;;;;;;;;;24.48;72.29;101337.31;5122832;27;20389;-74
2023/06/29 11:00:40;;;;;;;;;;;;;;;24.67;74.77;101337.63;5098760;27;19942;-72
2023/06/29 11:03:05;;;;;;;;;;;;;;;24.79;77.91;101341.53;5107773;27;20626;-72
2023/06/29 11:05:30;;;;;;;;;;;;;;;25.03;79.30;101338.50;5135107;27;20726;-72
2023/06/29 11:07:55;;;;;;;;;;;;;;;24.98;76.48;101339.94;5103650;27;20374;-73
2023/06/29 11:10:21;;;;;;;;;;;;;;;24.97;73.70;101335.50;5118017;27;20105;-73
2023/06/29 11:12:48;;;;;;;;;;;;;;;24.89;76.26;101343.06;5112264;27;19919;-72
2023/06/29 11:15:14;;;;;;;;;;;;;;;24.98;78.99;101341.88;5106126;27;19993;-72
2023/06/29 11:17:39;;;;;;;;;;;;;;;25.01;82.59;101341.47;5101341;27;20349;-72
2023/06/29 11:20:05;;;;;;;;;;;;;;;24.99;80.92;101340.81;5106107;27;19930;-72
2023/06/29 11:22:31;;;;;;;;;;;;;;;25.07;76.64;101343.38;5130730;27;20047;-72
2023/06/29 11:24:56;;;;;;;;;;;;;;;25.20;76.98;101337.09;5110299;27;20357;-73
2023/06/29 11:27:21;;;;;;;;;;;;;;;25.04;75.66;101340.19;5127919;27;20470;-72
2023/06/29 11:29:52;;;;;;;;;;;;;;;24.99;77.16;101344.41;5106868;27;19977;-71
2023/06/29 11:32:18;;;;;;;;;;;;;;;24.98;73.37;101345.44;5115989;27;20069;-72
2023/06/29 11:34:43;;;;;;;;;;;;;;;25.20;82.51;101345.31;5120728;27;19941;-72
2023/06/29 11:37:09;;;;;;;;;;;;;;;25.12;80.44;101349.09;5119416;27;19930;-73
2023/06/29 11:39:34;;;;;;;;;;;;;;;24.84;76.48;101344.53;5120580;27;19923;-74
2023/06/29 11:41:59;;;;;;;;;;;;;;;24.69;76.71;101344.59;5109557;28;19930;-73
2023/06/29 11:44:25;;;;;;;;;;;;;;;24.53;77.71;101343.03;5128861;27;19924;-72
2023/06/29 11:46:50;;;;;;;;;;;;;;;24.60;77.51;101337.59;5129063;27;19919;-70
2023/06/29 11:49:15;;;;;;;;;;;;;;;24.23;79.49;101332.25;5109675;28;19927;-76
2023/06/29 11:51:41;;;;;;;;;;;;;;;24.52;81.42;101329.50;5107628;28;19927;-75
2023/06/29 11:54:07;;;;;;;;;;;;;;;24.44;81.48;101326.91;5097425;27;19927;-73
2023/06/29 11:56:36;;;;;;;;;;;;;;;24.05;80.55;101326.41;5115644;28;19958;-74
2023/06/29 11:59:12;;;;;;;;;;;;;;;24.32;80.62;101318.38;5124928;27;19930;-74
2023/06/29 12:01:38;;;;;;;;;;;;;;;24.33;80.23;101323.69;5108452;28;19927;-76
2023/06/29 12:04:04;;;;;;;;;;;;;;;24.24;79.26;101322.97;5106047;28;19923;-74
2023/06/29 12:06:29;;;;;;;;;;;;;;;24.53;81.37;101321.06;5108334;27;19927;-75
2023/06/29 12:08:55;;;;;;;;;;;;;;;24.74;74.99;101311.09;5112412;28;20349;-72
2023/06/29 12:11:20;;;;;;;;;;;;;;;25.04;79.47;101307.22;5109905;28;20296;-73
2023/06/29 12:13:45;;;;;;;;;;;;;;;24.71;78.69;101300.53;5121203;27;20403;-74
2023/06/29 12:16:11;;;;;;;;;;;;;;;24.69;80.04;101297.94;5104941;28;19946;-74
2023/06/29 12:18:36;;;;;;;;;;;;;;;24.34;81.29;101297.09;5119792;27;20084;-77
2023/06/29 12:21:01;;;;;;;;;;;;;;;24.64;91.29;101294.13;5104843;28;19962;-75
2023/06/29 12:23:26;;;;;;;;;;;;;;;24.76;84.50;101302.66;5092842;27;19927;-75
2023/06/29 12:25:52;;;;;;;;;;;;;;;24.40;85.99;101301.78;5106018;28;19924;-74
2023/06/29 12:28:17;;;;;;;;;;;;;;;23.92;79.76;101292.31;5109283;28;19924;-74
2023/06/29 12:30:43;;;;;;;;;;;;;;;24.82;80.57;101299.94;5106433;28;19923;-74
2023/06/29 12:33:09;;;;;;;;;;;;;;;25.94;78.16;101295.22;5109898;27;20273;-74
2023/06/29 12:35:34;;;;;;;;;;;;;;;27.05;64.46;101285.28;5092953;28;19931;-74
2023/06/29 12:37:59;;;;;;;;;;;;;;;27.04;65.00;101297.38;5098814;28;19923;-72
2023/06/29 12:40:24;;;;;;;;;;;;;;;27.25;62.58;101303.66;5111336;27;20444;-73
2023/06/29 12:42:51;;;;;;;;;;;;;;;27.98;62.70;101293.19;5103681;28;20383;-73
2023/06/29 12:45:16;;;;;;;;;;;;;;;28.37;58.12;101287.56;5106183;28;19935;-73
2023/06/29 12:47:42;;;;;;;;;;;;;;;27.60;62.78;101278.44;5087595;28;19954;-76
2023/06/29 12:50:07;;;;;;;;;;;;;;;28.51;61.04;101283.59;5104857;27;19919;-74
2023/06/29 12:52:32;;;;;;;;;;;;;;;28.08;63.04;101281.66;5105599;28;19997;-74
2023/06/29 12:54:57;;;;;;;;;;;;;;;27.77;64.93;101270.44;5117686;27;19923;-74
2023/06/29 12:57:28;;;;;;;;;;;;;;;27.31;64.63;101275.19;5093893;27;20200;-74
2023/06/29 12:59:53;;;;;;;;;;;;;;;27.10;65.07;101277.22;5109329;28;19927;-75
2023/06/29 13:02:19;;;;;;;;;;;;;;;27.14;66.59;101277.63;5090113;28;19923;-74
2023/06/29 13:04:44;;;;;;;;;;;;;;;27.92;65.21;101280.31;5110203;28;20605;-73
2023/06/29 13:07:09;;;;;;;;;;;;;;;29.12;61.07;101278.25;5100543;28;19975;-73
2023/06/29 13:09:37;;;;;;;;;;;;;;;27.48;63.63;101274.72;5084295;28;19961;-76
2023/06/29 13:12:03;;;;;;;;;;;;;;;26.46;65.55;101267.88;5096441;27;20010;-75
2023/06/29 13:14:29;;;;;;;;;;;;;;;25.69;69.19;101276.59;5096986;27;20030;-74
2023/06/29 13:16:55;;;;;;;;;;;;;;;25.23;71.77;101265.25;5102962;28;19919;-75
2023/06/29 13:19:21;;;;;;;;;;;;;;;25.31;72.00;101267.81;5105535;28;19927;-72
2023/06/29 13:21:46;;;;;;;;;;;;;;;25.07;75.86;101269.19;5128231;27;19956;-73
2023/06/29 13:24:11;;;;;;;;;;;;;;;25.14;78.80;101272.00;5120623;27;19934;-74
2023/06/29 13:26:36;;;;;;;;;;;;;;;25.17;79.21;101274.31;5103800;28;20365;-76
2023/06/29 13:29:01;;;;;;;;;;;;;;;25.15;76.89;101265.44;5106019;28;20349;-78
2023/06/29 13:31:27;;;;;;;;;;;;;;;24.61;76.27;101259.69;5095347;28;20262;-76
2023/06/29 13:33:52;;;;;;;;;;;;;;;24.70;83.87;101261.19;5103712;27;19991;-73
2023/06/29 13:36:17;;;;;;;;;;;;;;;23.90;79.94;101252.41;5119044;27;20021;-73
2023/06/29 13:38:42;;;;;;;;;;;;;;;24.06;84.05;101256.78;5118565;27;19928;-75
2023/06/29 13:41:08;;;;;;;;;;;;;;;24.08;83.20;101261.03;5100827;27;20142;-76
2023/06/29 13:43:33;;;;;;;;;;;;;;;23.94;84.73;101260.06;5118031;27;20000;-76
2023/06/29 13:45:58;;;;;;;;;;;;;;;23.83;87.06;101259.75;5079533;27;19978;-76
2023/06/29 13:48:23;;;;;;;;;;;;;;;24.04;83.64;101272.59;5092831;27;20632;-75
2023/06/29 13:50:50;;;;;;;;;;;;;;;24.01;84.38;101276.59;5116237;27;19966;-74
2023/06/29 13:53:15;;;;;;;;;;;;;;;23.26;93.00;101281.53;5113308;27;20045;-73
2023/06/29 13:55:45;;;;;;;;;;;;;;;22.75;99.79;101300.44;5116077;27;20026;-75
2023/06/29 13:58:10;;;;;;;;;;;;;;;22.22;100.00;101305.09;5117419;27;19931;-72
2023/06/29 14:00:36;;;;;;;;;;;;;;;21.89;100.00;101314.44;5110900;27;20280;-72
2023/06/29 14:03:02;;;;;;;;;;;;;;;21.49;100.00;101330.03;5096468;28;19959;-71
2023/06/29 14:05:27;;;;;;;;;;;;;;;20.90;100.00;101332.19;5113800;27;20439;-72
2023/06/29 14:07:52;;;;;;;;;;;;;;;20.59;100.00;101323.91;5109689;27;20026;-73
2023/06/29 14:10:18;;;;;;;;;;;;;;;20.23;100.00;101331.44;5109265;27;19934;-71
2023/06/29 14:12:43;;;;;;;;;;;;;;;19.74;100.00;101326.78;5098895;27;19954;-73
2023/06/29 14:15:08;;;;;;;;;;;;;;;19.45;100.00;101330.00;5107350;27;20475;-72
2023/06/29 14:17:33;;;;;;;;;;;;;;;19.29;100.00;101333.50;5120324;27;20010;-72
2023/06/29 14:19:59;;;;;;;;;;;;;;;19.25;100.00;101323.97;5117976;27;19930;-73
2023/06/29 14:22:24;;;;;;;;;;;;;;;19.25;100.00;101340.28;5118358;27;19989;-74
2023/06/29 14:24:49;;;;;;;;;;;;;;;19.31;100.00;101331.47;5107475;28;19923;-74
2023/06/29 14:27:17;;;;;;;;;;;;;;;19.60;100.00;101327.47;5104182;27;19927;-74
2023/06/29 14:29:42;;;;;;;;;;;;;;;19.90;100.00;101333.34;5097667;28;19989;-73
2023/06/29 14:32:07;;;;;;;;;;;;;;;20.10;100.00;101331.13;5103284;27;20503;-73
2023/06/29 14:34:32;;;;;;;;;;;;;;;20.16;100.00;101324.13;5096590;28;20401;-73
2023/06/29 14:36:57;;;;;;;;;;;;;;;20.32;100.00;101321.38;5091731;27;20376;-74
2023/06/29 14:39:23;;;;;;;;;;;;;;;20.39;100.00;101313.38;5090822;28;20343;-74
2023/06/29 14:41:52;;;;;;;;;;;;;;;20.56;100.00;101314.19;5099125;28;19923;-73
2023/06/29 14:44:17;;;;;;;;;;;;;;;20.58;100.00;101312.13;5100927;27;19962;-74
2023/06/29 14:46:43;;;;;;;;;;;;;;;20.52;100.00;101313.69;5095547;28;20002;-76
2023/06/29 14:49:08;;;;;;;;;;;;;;;20.50;100.00;101310.28;5100787;28;19919;-74
2023/06/29 14:51:33;;;;;;;;;;;;;;;20.52;100.00;101312.84;5101561;28;19931;-75
2023/06/29 14:53:59;;;;;;;;;;;;;;;20.60;100.00;101312.81;5104048;28;19962;-74
2023/06/29 14:56:24;;;;;;;;;;;;;;;20.65;100.00;101312.31;5114347;27;19968;-74
2023/06/29 14:58:49;;;;;;;;;;;;;;;20.73;100.00;101304.06;5078436;28;19958;-74
2023/06/29 15:01:14;;;;;;;;;;;;;;;20.82;100.00;101307.66;5094749;28;20029;-73
2023/06/29 15:03:40;;;;;;;;;;;;;;;20.95;100.00;101309.81;5103627;28;19924;-73
2023/06/29 15:06:05;;;;;;;;;;;;;;;21.04;100.00;101313.41;5087184;28;19930;-73
2023/06/29 15:08:30;;;;;;;;;;;;;;;21.11;100.00;101315.22;5092028;27;19952;-73
2023/06/29 15:10:55;;;;;;;;;;;;;;;21.15;100.00;101307.53;5115141;27;19923;-73
2023/06/29 15:13:20;;;;;;;;;;;;;;;21.28;100.00;101305.06;5118361;27;19964;-73
2023/06/29 15:15:46;;;;;;;;;;;;;;;21.21;100.00;101304.09;5091528;27;19968;-73
2023/06/29 15:18:11;;;;;;;;;;;;;;;21.32;100.00;101299.25;5114350;27;20385;-72
2023/06/29 15:20:36;;;;;;;;;;;;;;;21.41;100.00;101293.56;5117841;27;20364;-72
2023/06/29 15:23:01;;;;;;;;;;;;;;;21.43;100.00;101293.38;5103496;28;19945;-72
2023/06/29 15:25:27;;;;;;;;;;;;;;;21.47;100.00;101293.84;5087982;28;19927;-73
2023/06/29 15:27:52;;;;;;;;;;;;;;;21.59;100.00;101284.22;5099553;27;20369;-72
2023/06/29 15:30:17;;;;;;;;;;;;;;;21.67;100.00;101273.28;5120675;27;20625;-72
2023/06/29 15:32:42;;;;;;;;;;;;;;;21.59;100.00;101235.03;5102127;27;19923;-73
2023/06/29 15:35:08;;;;;;;;;;;;;;;21.91;100.00;101273.22;5089866;28;19923;-72
2023/06/29 15:37:34;;;;;;;;;;;;;;;22.09;100.00;101278.38;5083889;27;20243;-73
2023/06/29 15:39:59;;;;;;;;;;;;;;;22.36;100.00;101279.66;5100845;28;19930;-72
2023/06/29 15:42:24;;;;;;;;;;;;;;;22.64;100.00;101272.69;5089102;27;19927;-73
2023/06/29 15:44:49;;;;;;;;;;;;;;;22.85;100.00;101275.50;5101029;28;19924;-72
2023/06/29 15:47:15;;;;;;;;;;;;;;;23.17;100.00;101269.81;5103602;27;19968;-72
2023/06/29 15:49:40;;;;;;;;;;;;;;;23.26;100.00;101263.19;5109624;28;19927;-72
2023/06/29 15:52:05;;;;;;;;;;;;;;;23.25;100.00;101268.88;5100895;27;19923;-72
2023/06/29 15:54:30;;;;;;;;;;;;;;;23.29;100.00;101268.28;5106433;27;19979;-72
2023/06/29 15:56:56;;;;;;;;;;;;;;;23.18;100.00;101258.66;5115412;27;19927;-72
2023/06/29 15:59:21;;;;;;;;;;;;;;;23.45;100.00;101245.25;5097751;28;19935;-72
2023/06/29 16:01:46;;;;;;;;;;;;;;;23.47;100.00;101250.53;5115850;27;19930;-72
2023/06/29 16:04:13;;;;;;;;;;;;;;;23.29;100.00;101253.75;5118010;27;19923;-72
2023/06/29 16:06:42;;;;;;;;;;;;;;;23.20;100.00;101247.47;5121598;27;20018;-72
2023/06/29 16:09:07;;;;;;;;;;;;;;;23.28;100.00;101252.88;5103935;28;19930;-71
2023/06/29 16:11:33;;;;;;;;;;;;;;;23.11;100.00;101249.50;5099353;28;19928;-71
2023/06/29 16:13:58;;;;;;;;;;;;;;;22.88;100.00;101241.44;5123517;27;19920;-73
2023/06/29 16:16:23;;;;;;;;;;;;;;;23.06;100.00;101244.59;5109236;28;19928;-73
2023/06/29 16:18:49;;;;;;;;;;;;;;;23.19;100.00;101245.78;5126102;27;19925;-73
2023/06/29 16:21:14;;;;;;;;;;;;;;;23.37;100.00;101242.66;5124638;27;19931;-72
2023/06/29 16:23:39;;;;;;;;;;;;;;;23.60;100.00;101242.47;5120020;27;19949;-72
2023/06/29 16:26:04;;;;;;;;;;;;;;;23.80;100.00;101242.66;5121795;27;19988;-72
2023/06/29 16:28:30;;;;;;;;;;;;;;;23.65;100.00;101237.25;5115153;27;19934;-72
2023/06/29 16:30:55;;;;;;;;;;;;;;;23.54;100.00;101235.03;5119569;27;19919;-71
2023/06/29 16:33:20;;;;;;;;;;;;;;;23.36;100.00;101239.06;5116229;27;19982;-71
2023/06/29 16:35:45;;;;;;;;;;;;;;;23.10;100.00;101241.50;5087564;28;20322;-71
2023/06/29 16:38:11;;;;;;;;;;;;;;;22.92;100.00;101246.34;5097384;27;20386;-71
2023/06/29 16:40:36;;;;;;;;;;;;;;;22.90;100.00;101244.84;5118320;27;20420;-72
2023/06/29 16:43:01;;;;;;;;;;;;;;;22.84;100.00;101238.22;5114602;27;19923;-73
2023/06/29 16:45:27;;;;;;;;;;;;;;;22.49;100.00;101245.34;5121035;27;19929;-75
2023/06/29 16:47:52;;;;;;;;;;;;;;;22.44;100.00;101246.75;5082500;27;19931;-72
2023/06/29 16:50:17;;;;;;;;;;;;;;;22.27;100.00;101251.50;5114724;27;20433;-72
2023/06/29 16:52:42;;;;;;;;;;;;;;;22.36;100.00;101254.16;5083809;27;20393;-72
2023/06/29 16:55:08;;;;;;;;;;;;;;;22.29;100.00;101254.09;5098893;27;20277;-71
2023/06/29 16:57:33;;;;;;;;;;;;;;;22.14;100.00;101254.06;5086767;28;19926;-71
2023/06/29 16:59:58;;;;;;;;;;;;;;;21.88;100.00;101263.53;5114269;27;19924;-72
2023/06/29 17:02:23;;;;;;;;;;;;;;;21.88;100.00;101266.25;5096515;28;19963;-71
2023/06/29 17:04:49;;;;;;;;;;;;;;;21.61;100.00;101281.28;5077739;27;19978;-72
2023/06/29 17:07:14;;;;;;;;;;;;;;;21.68;100.00;101257.72;5084442;28;19984;-71
2023/06/29 17:09:40;;;;;;;;;;;;;;;21.77;100.00;101259.34;5108547;27;19919;-71
2023/06/29 17:12:06;;;;;;;;;;;;;;;21.55;100.00;101263.75;5108458;27;19930;-72
2023/06/29 17:14:31;;;;;;;;;;;;;;;21.48;100.00;101274.56;5108671;27;19920;-72
2023/06/29 17:16:57;;;;;;;;;;;;;;;21.42;100.00;101270.69;5089563;28;19924;-72
2023/06/29 17:19:23;;;;;;;;;;;;;;;21.35;100.00;101272.44;5109972;27;19919;-72
2023/06/29 17:21:48;;;;;;;;;;;;;;;21.19;100.00;101258.88;5106178;27;19931;-71
2023/06/29 17:24:13;;;;;;;;;;;;;;;21.18;100.00;101266.22;5107533;27;19995;-71
2023/06/29 17:26:38;;;;;;;;;;;;;;;21.18;100.00;101274.41;5085247;28;20018;-71
2023/06/29 17:29:03;;;;;;;;;;;;;;;;;;5109048;27;19924;-71
2023/06/29 17:31:30;;;;;;;;;;;;;;;20.95;100.00;101288.84;5110210;27;19963;-72
2023/06/29 17:33:55;;;;;;;;;;;;;;;20.73;100.00;101289.59;5089739;28;19934;-70